Time;durP1;ratioP1;P1;durP2;ratioP2;P2;SDS_P1;SDS_P2;PMS_P1;PMS_P2;Temp;Humidity;BMP_temperature;BMP_pressure;BME280_temperature;BME280_humidity;BME280_pressure;Samples;Min_cycle;Max_cycle;Signal;HPM_P1;HPM_P2
2023/01/11 00:01:19;;;;;;;3.78;2.03;;;9.20;99.90;;;;;;5050937;28;20049;-76
2023/01/11 00:03:45;;;;;;;4.03;2.42;;;9.20;99.90;;;;;;5042198;28;20045;-76
2023/01/11 00:06:11;;;;;;;3.05;1.88;;;9.20;99.90;;;;;;5051824;28;20416;-76
2023/01/11 00:08:37;;;;;;;5.28;2.75;;;9.20;99.90;;;;;;5052920;28;20041;-77
2023/01/11 00:11:03;;;;;;;3.72;1.83;;;9.20;99.90;;;;;;5052623;28;20049;-77
2023/01/11 00:13:29;;;;;;;4.65;2.15;;;9.30;99.90;;;;;;5050680;28;20045;-76
2023/01/11 00:15:55;;;;;;;4.47;2.55;;;9.30;99.90;;;;;;5051547;28;20048;-77
2023/01/11 00:18:20;;;;;;;3.92;2.47;;;9.30;99.90;;;;;;5052210;28;20045;-77
2023/01/11 00:20:46;;;;;;;3.70;2.58;;;9.30;99.90;;;;;;5052560;28;20127;-77
2023/01/11 00:23:12;;;;;;;3.83;2.45;;;9.30;99.90;;;;;;5052856;28;20112;-77
2023/01/11 00:25:37;;;;;;;3.97;2.45;;;9.30;99.90;;;;;;5054366;28;20489;-77
2023/01/11 00:28:04;;;;;;;5.13;2.20;;;9.30;99.90;;;;;;5054878;28;20033;-77
2023/01/11 00:30:29;;;;;;;3.92;2.38;;;9.40;99.90;;;;;;5055015;28;20420;-77
2023/01/11 00:32:56;;;;;;;3.67;2.22;;;9.40;99.90;;;;;;5055167;28;20040;-76
2023/01/11 00:35:22;;;;;;;3.70;2.30;;;9.40;99.90;;;;;;5056335;28;20474;-76
2023/01/11 00:37:47;;;;;;;3.33;2.17;;;9.40;99.90;;;;;;5054951;28;20167;-76
2023/01/11 00:40:13;;;;;;;3.20;2.03;;;9.50;99.90;;;;;;5037192;28;20064;-76
2023/01/11 00:48:09;;;;;;;2.95;1.80;;;9.50;99.90;;;;;;5056480;28;20033;-77
2023/01/11 00:50:37;;;;;;;4.95;1.88;;;9.60;99.90;;;;;;5054508;28;20405;-77
2023/01/11 00:53:03;;;;;;;3.00;2.17;;;9.60;99.90;;;;;;5056037;28;20450;-77
2023/01/11 00:55:30;;;;;;;3.03;2.03;;;9.60;99.90;;;;;;5056027;28;20043;-76
2023/01/11 00:57:57;;;;;;;3.80;2.30;;;9.60;99.90;;;;;;5055956;28;20069;-77
2023/01/11 01:00:22;;;;;;;3.67;2.10;;;9.60;99.90;;;;;;5054817;28;20080;-76
2023/01/11 01:02:49;;;;;;;5.82;2.78;;;9.60;99.90;;;;;;5038016;28;20052;-77
2023/01/11 01:05:15;;;;;;;4.20;2.42;;;9.70;99.90;;;;;;5052079;28;20115;-77
2023/01/11 01:07:41;;;;;;;2.75;1.65;;;9.70;99.90;;;;;;5052875;28;20037;-76
2023/01/11 01:10:07;;;;;;;2.97;1.90;;;9.70;99.90;;;;;;5054915;28;20394;-76
2023/01/11 01:15:19;;;;;;;3.20;1.92;;;9.80;99.90;;;;;;5055071;28;20076;-76
2023/01/11 01:17:45;;;;;;;3.35;1.95;;;9.80;99.90;;;;;;5055631;28;20041;-76
2023/01/11 01:20:11;;;;;;;4.55;2.10;;;9.80;99.90;;;;;;5053443;28;20048;-76
2023/01/11 01:22:37;;;;;;;3.28;1.70;;;9.70;99.90;;;;;;5054533;28;20072;-76
2023/01/11 01:25:03;;;;;;;4.72;2.20;;;9.80;99.90;;;;;;5055593;28;20076;-77
2023/01/11 01:27:29;;;;;;;3.17;1.90;;;9.80;99.90;;;;;;5053786;28;20029;-76
2023/01/11 01:29:54;;;;;;;4.18;2.17;;;9.80;99.90;;;;;;5054091;28;20107;-77
2023/01/11 01:32:20;;;;;;;4.03;2.17;;;9.90;99.90;;;;;;5052999;28;20055;-77
2023/01/11 01:34:46;;;;;;;2.30;1.30;;;9.90;99.90;;;;;;5053532;28;20044;-76
2023/01/11 01:37:13;;;;;;;3.08;2.08;;;9.90;99.90;;;;;;5052909;28;20401;-76
2023/01/11 01:39:39;;;;;;;2.30;1.50;;;9.90;99.90;;;;;;5054599;28;20037;-76
2023/01/11 01:42:06;;;;;;;3.83;2.13;;;9.90;99.90;;;;;;5036920;28;20064;-77
2023/01/11 01:44:52;;;;;;;4.47;2.33;;;9.90;99.90;;;;;;5055170;28;20041;-77
2023/01/11 01:47:21;;;;;;;4.97;2.38;;;10.00;99.90;;;;;;5054859;28;20041;-76
2023/01/11 01:49:47;;;;;;;2.97;1.50;;;10.00;99.90;;;;;;5054497;28;20033;-76
2023/01/11 01:52:13;;;;;;;3.15;1.90;;;10.10;99.90;;;;;;5052281;28;20110;-76
2023/01/11 01:54:43;;;;;;;3.42;1.98;;;10.10;99.90;;;;;;5055017;28;20036;-76
2023/01/11 01:57:15;;;;;;;3.00;1.83;;;10.10;99.90;;;;;;5053646;28;20235;-76
2023/01/11 01:59:41;;;;;;;2.97;1.42;;;10.10;99.90;;;;;;5039543;28;20042;-76
2023/01/11 02:02:06;;;;;;;0.98;0.80;;;10.10;99.90;;;;;;5036219;28;20042;-76
2023/01/11 02:04:38;;;;;;;1.90;1.48;;;10.10;99.90;;;;;;5051029;28;20049;-76
2023/01/11 02:07:09;;;;;;;2.97;1.80;;;10.20;99.90;;;;;;5054697;28;20040;-76
2023/01/11 02:09:50;;;;;;;2.80;1.65;;;10.20;99.90;;;;;;5051754;28;20051;-76
2023/01/11 02:12:18;;;;;;;3.95;1.50;;;10.20;99.90;;;;;;5053260;28;20037;-76
2023/01/11 02:14:45;;;;;;;3.72;1.85;;;10.20;99.90;;;;;;5054476;28;20500;-76
2023/01/11 02:17:12;;;;;;;2.13;1.35;;;10.20;99.90;;;;;;5054563;28;20083;-76
2023/01/11 02:19:51;;;;;;;1.05;0.90;;;10.20;99.90;;;;;;5053964;28;20400;-75
2023/01/11 02:22:41;;;;;;;2.47;1.60;;;10.30;99.90;;;;;;5053527;28;20040;-76
2023/01/11 02:25:28;;;;;;;2.30;1.65;;;10.40;99.90;;;;;;5054474;28;20040;-76
2023/01/11 02:28:20;;;;;;;2.10;1.10;;;10.30;99.90;;;;;;5054307;28;20451;-76
2023/01/11 02:30:59;;;;;;;1.17;0.98;;;10.40;99.90;;;;;;5053763;28;20063;-76
2023/01/11 02:33:36;;;;;;;2.30;1.33;;;10.40;99.90;;;;;;5052889;28;20040;-76
2023/01/11 02:36:18;;;;;;;2.85;1.50;;;10.50;99.90;;;;;;5042593;28;20084;-77
2023/01/11 02:38:58;;;;;;;2.00;1.30;;;10.50;99.90;;;;;;5049245;28;20037;-77
2023/01/11 02:47:33;;;;;;;1.52;1.10;;;10.50;99.90;;;;;;5040137;28;20048;-77
2023/01/11 02:50:21;;;;;;;2.15;1.10;;;10.60;99.90;;;;;;5053935;28;20051;-77
2023/01/11 02:53:11;;;;;;;1.95;1.30;;;10.60;99.90;;;;;;5052142;28;20405;-78
2023/01/11 02:55:40;;;;;;;1.13;0.90;;;10.60;99.90;;;;;;5052514;28;20049;-77
2023/01/11 02:58:10;;;;;;;1.45;1.13;;;10.60;99.90;;;;;;5035046;28;20045;-78
2023/01/11 03:00:40;;;;;;;1.80;1.20;;;10.60;99.90;;;;;;5034757;28;20166;-79
2023/01/11 03:03:12;;;;;;;2.60;1.42;;;10.60;99.90;;;;;;5053472;28;20053;-79
2023/01/11 03:05:43;;;;;;;1.77;1.05;;;10.60;99.90;;;;;;5068612;28;20511;-79
2023/01/11 03:08:36;;;;;;;1.33;0.90;;;10.80;99.90;;;;;;5053670;28;20477;-79
2023/01/11 03:14:55;;;;;;;1.10;1.00;;;10.70;99.90;;;;;;5052769;28;20049;-79
2023/01/11 03:17:34;;;;;;;0.95;0.65;;;10.70;99.90;;;;;;5051364;28;21786;-78
2023/01/11 03:20:08;;;;;;;1.13;0.98;;;10.70;99.90;;;;;;5052308;28;20072;-79
2023/01/11 03:22:58;;;;;;;1.92;0.90;;;10.80;99.90;;;;;;5053278;28;20048;-78
2023/01/11 03:25:35;;;;;;;0.65;0.65;;;10.80;99.90;;;;;;5052862;28;20036;-78
2023/01/11 03:28:33;;;;;;;1.73;0.88;;;10.80;99.90;;;;;;5053381;28;20114;-78
2023/01/11 03:31:06;;;;;;;0.82;0.73;;;10.80;99.90;;;;;;5051396;28;20183;-79
2023/01/11 03:33:55;;;;;;;1.90;1.10;;;10.80;99.90;;;;;;5051816;28;20045;-79
2023/01/11 03:36:24;;;;;;;0.77;0.77;;;10.80;99.90;;;;;;5051686;28;20033;-79
2023/01/11 03:38:59;;;;;;;1.95;1.02;;;10.80;99.90;;;;;;5066820;28;20052;-79
2023/01/11 03:41:29;;;;;;;1.80;0.80;;;10.80;99.90;;;;;;5068644;28;20134;-79
2023/01/11 03:43:58;;;;;;;0.70;0.70;;;10.80;99.90;;;;;;5051798;28;20041;-79
2023/01/11 03:46:49;;;;;;;0.50;0.50;;;10.80;99.90;;;;;;5052485;28;20049;-80
2023/01/11 03:49:50;;;;;;;0.75;0.60;;;10.80;99.90;;;;;;5053093;28;20111;-79
2023/01/11 03:52:21;;;;;;;0.90;0.73;;;10.90;99.90;;;;;;5051615;28;20053;-78
2023/01/11 03:54:47;;;;;;;3.90;1.00;;;10.80;99.90;;;;;;5050997;28;20126;-79
2023/01/11 03:57:22;;;;;;;1.08;0.88;;;10.80;99.90;;;;;;5052011;28;20056;-77
2023/01/11 03:59:49;;;;;;;0.75;0.60;;;10.80;99.90;;;;;;5053823;28;20049;-78
2023/01/11 04:02:26;;;;;;;0.60;0.60;;;10.80;99.90;;;;;;5055764;28;20524;-78
2023/01/11 04:04:52;;;;;;;0.65;0.65;;;10.80;99.90;;;;;;5056030;28;20405;-78
2023/01/11 04:07:17;;;;;;;0.40;0.40;;;10.80;99.90;;;;;;5057117;28;20041;-79
2023/01/11 04:09:44;;;;;;;1.15;0.60;;;10.80;99.90;;;;;;5056899;28;20043;-79
2023/01/11 04:12:10;;;;;;;1.33;0.60;;;10.80;99.90;;;;;;5051489;28;20409;-79
2023/01/11 04:14:35;;;;;;;1.13;0.50;;;10.70;99.90;;;;;;5036835;28;20045;-79
2023/01/11 04:17:01;;;;;;;0.73;0.60;;;10.80;99.90;;;;;;5035401;28;20040;-79
2023/01/11 04:19:27;;;;;;;1.35;0.45;;;10.80;99.90;;;;;;5028464;28;20052;-79
2023/01/11 04:21:53;;;;;;;1.05;0.60;;;10.80;99.90;;;;;;5056899;28;20037;-79
2023/01/11 04:24:18;;;;;;;1.10;0.63;;;10.90;99.90;;;;;;5054245;28;20033;-79
2023/01/11 04:26:44;;;;;;;1.02;0.70;;;10.90;99.90;;;;;;5056729;28;20103;-79
2023/01/11 04:29:10;;;;;;;1.55;0.70;;;10.90;99.90;;;;;;5056588;28;20037;-80
2023/01/11 04:31:35;;;;;;;1.35;0.60;;;10.90;99.90;;;;;;5054504;28;20124;-79
2023/01/11 04:34:01;;;;;;;0.88;0.70;;;10.90;99.90;;;;;;5055347;28;20048;-80
2023/01/11 04:36:29;;;;;;;3.13;0.90;;;11.00;99.90;;;;;;5038527;28;20520;-80
2023/01/11 04:38:55;;;;;;;2.42;1.30;;;10.90;99.90;;;;;;5055680;28;20037;-79
2023/01/11 04:44:05;;;;;;;3.13;1.30;;;10.90;99.90;;;;;;5056188;28;20413;-79
2023/01/11 04:46:31;;;;;;;8.55;1.65;;;11.00;99.90;;;;;;5070239;28;20040;-79
2023/01/11 04:48:56;;;;;;;9.27;1.65;;;11.00;99.90;;;;;;5056377;28;20151;-79
2023/01/11 04:51:22;;;;;;;11.75;2.05;;;10.90;99.90;;;;;;5054829;28;20382;-79
2023/01/11 04:53:49;;;;;;;6.68;1.48;;;11.00;99.90;;;;;;5055418;28;20037;-78
2023/01/11 04:56:15;;;;;;;10.35;2.45;;;11.00;99.90;;;;;;5056050;28;20619;-79
2023/01/11 04:58:41;;;;;;;13.85;2.63;;;11.00;99.90;;;;;;5054764;28;20041;-79
2023/01/11 05:01:12;;;;;;;11.48;2.90;;;11.00;99.90;;;;;;5054877;28;20041;-79
2023/01/11 05:03:38;;;;;;;13.30;2.33;;;10.90;99.90;;;;;;5054793;28;20044;-79
2023/01/11 05:06:04;;;;;;;14.93;3.15;;;10.90;99.90;;;;;;5054888;28;20455;-78
2023/01/11 05:08:30;;;;;;;14.73;3.33;;;10.90;99.90;;;;;;5054484;28;20048;-78
2023/01/11 05:10:58;;;;;;;16.92;3.00;;;10.90;99.90;;;;;;5055721;28;20037;-77
2023/01/11 05:13:42;;;;;;;18.60;3.92;;;10.80;99.90;;;;;;5054866;28;20041;-77
2023/01/11 05:16:13;;;;;;;16.65;2.90;;;10.80;99.90;;;;;;5054987;28;20040;-78
2023/01/11 05:18:45;;;;;;;18.30;3.30;;;10.90;99.90;;;;;;5055789;28;20493;-78
2023/01/11 05:21:13;;;;;;;18.47;3.17;;;10.90;99.90;;;;;;5055617;28;20045;-78
2023/01/11 05:23:40;;;;;;;19.95;3.40;;;10.90;99.90;;;;;;5054680;28;20107;-77
2023/01/11 05:26:08;;;;;;;16.05;3.10;;;10.80;99.90;;;;;;5048676;28;20044;-78
2023/01/11 05:28:34;;;;;;;21.02;3.53;;;10.80;99.90;;;;;;5051350;28;20041;-78
2023/01/11 05:31:00;;;;;;;19.10;3.42;;;10.80;99.90;;;;;;5053301;28;20049;-78
2023/01/11 05:33:26;;;;;;;17.50;3.90;;;10.70;99.90;;;;;;5050954;28;20516;-78
2023/01/11 05:36:07;;;;;;;19.10;3.97;;;10.70;99.90;;;;;;5055766;28;20041;-78
2023/01/11 05:38:33;;;;;;;14.73;2.53;;;10.80;99.90;;;;;;5053848;28;20052;-77
2023/01/11 05:41:04;;;;;;;17.95;3.10;;;10.70;99.90;;;;;;5055318;28;20059;-77
2023/01/11 05:43:30;;;;;;;17.13;3.00;;;10.70;99.90;;;;;;5053315;28;20036;-77
2023/01/11 05:45:57;;;;;;;17.73;3.47;;;10.70;99.90;;;;;;5052903;28;20120;-77
2023/01/11 05:48:23;;;;;;;19.45;3.15;;;10.60;99.90;;;;;;5052829;28;20036;-78
2023/01/11 05:50:51;;;;;;;24.63;3.65;;;10.60;99.90;;;;;;5051122;28;20047;-77
2023/01/11 05:53:17;;;;;;;21.17;3.03;;;10.60;99.90;;;;;;5051550;28;20492;-77
2023/01/11 05:55:51;;;;;;;15.10;2.75;;;10.50;99.90;;;;;;5049857;28;20102;-77
2023/01/11 05:58:17;;;;;;;14.38;2.45;;;10.50;99.90;;;;;;5052039;28;20040;-78
2023/01/11 06:00:42;;;;;;;12.88;2.78;;;10.50;99.90;;;;;;5053413;28;20116;-77
2023/01/11 06:03:08;;;;;;;17.58;2.65;;;10.50;99.90;;;;;;5054558;28;20118;-77
2023/01/11 06:05:34;;;;;;;20.08;3.17;;;10.50;99.90;;;;;;5059849;28;20101;-77
2023/01/11 06:07:59;;;;;;;12.40;2.25;;;10.50;99.90;;;;;;5074649;28;20037;-77
2023/01/11 06:10:25;;;;;;;14.85;2.85;;;10.50;99.90;;;;;;5054167;28;20076;-77
2023/01/11 06:13:25;;;;;;;18.25;2.80;;;10.40;99.90;;;;;;5054916;28;20132;-77
2023/01/11 06:15:36;;;;;;;19.45;3.10;;;10.40;99.90;;;;;;5034403;28;20045;-77
2023/01/11 06:18:02;;;;;;;15.35;3.03;;;10.40;99.90;;;;;;5034626;28;20047;-77
2023/01/11 06:20:28;;;;;;;16.42;3.00;;;10.40;99.90;;;;;;5053284;28;20048;-77
2023/01/11 06:22:53;;;;;;;23.92;4.07;;;10.40;99.90;;;;;;5053689;28;20541;-77
2023/01/11 06:25:19;;;;;;;13.60;2.53;;;10.30;99.90;;;;;;5054117;28;20033;-77
2023/01/11 06:27:44;;;;;;;18.90;2.88;;;10.40;99.90;;;;;;5054262;28;20128;-77
2023/01/11 06:30:11;;;;;;;13.82;2.85;;;10.40;99.90;;;;;;5053046;28;20037;-77
2023/01/11 06:32:37;;;;;;;17.20;2.63;;;10.50;99.90;;;;;;5054061;28;20040;-77
2023/01/11 06:35:02;;;;;;;18.15;3.63;;;10.50;99.90;;;;;;5052904;28;20473;-77
2023/01/11 06:37:28;;;;;;;22.13;3.38;;;10.50;99.90;;;;;;5053025;28;20397;-77
2023/01/11 06:39:53;;;;;;;17.17;3.53;;;10.40;99.90;;;;;;5044233;28;20400;-77
2023/01/11 06:42:19;;;;;;;22.90;3.17;;;10.30;99.90;;;;;;5069308;28;20127;-77
2023/01/11 06:44:44;;;;;;;14.07;2.55;;;10.20;99.90;;;;;;5053842;28;20052;-77
2023/01/11 06:47:10;;;;;;;15.50;2.33;;;10.40;99.90;;;;;;5053795;28;20033;-77
2023/01/11 06:49:35;;;;;;;12.43;2.42;;;10.40;99.90;;;;;;5051287;28;20374;-77
2023/01/11 06:52:01;;;;;;;16.83;2.53;;;10.30;99.90;;;;;;5053969;28;20041;-77
2023/01/11 06:54:27;;;;;;;14.05;2.88;;;10.40;99.90;;;;;;5052536;28;20064;-76
2023/01/11 06:56:52;;;;;;;18.30;2.95;;;10.30;99.90;;;;;;5054217;28;20040;-76
2023/01/11 06:59:18;;;;;;;18.27;2.70;;;10.20;99.90;;;;;;5051048;28;20040;-76
2023/01/11 07:01:43;;;;;;;16.38;2.92;;;10.10;99.90;;;;;;5053508;28;20116;-76
2023/01/11 07:04:09;;;;;;;17.05;2.35;;;10.10;99.90;;;;;;5051517;28;20041;-76
2023/01/11 07:06:35;;;;;;;19.38;2.53;;;10.00;99.90;;;;;;5041741;28;20612;-77
2023/01/11 07:09:01;;;;;;;15.32;2.97;;;10.10;99.90;;;;;;5051575;28;20041;-76
2023/01/11 07:11:26;;;;;;;16.90;2.45;;;10.00;99.90;;;;;;5052882;28;20374;-76
2023/01/11 07:13:52;;;;;;;13.48;2.80;;;10.00;99.90;;;;;;5050082;28;20489;-76
2023/01/11 07:16:17;;;;;;;16.95;2.53;;;9.90;99.90;;;;;;5049408;28;20033;-77
2023/01/11 07:18:43;;;;;;;18.00;2.88;;;9.90;99.90;;;;;;5051766;28;20044;-76
2023/01/11 07:21:09;;;;;;;18.05;2.63;;;9.90;99.90;;;;;;5050105;28;20041;-76
2023/01/11 07:23:34;;;;;;;13.32;2.05;;;9.90;99.90;;;;;;5049156;28;20047;-77
2023/01/11 07:26:00;;;;;;;16.42;3.00;;;9.90;99.90;;;;;;5051428;28;20112;-76
2023/01/11 07:28:27;;;;;;;10.30;2.05;;;9.90;99.90;;;;;;5051494;28;20041;-77
2023/01/11 07:30:53;;;;;;;12.25;1.90;;;9.90;99.90;;;;;;5052232;28;20052;-76
2023/01/11 07:33:18;;;;;;;12.15;2.10;;;9.90;99.90;;;;;;5052827;28;20481;-76
2023/01/11 07:35:44;;;;;;;19.25;4.55;;;9.80;99.90;;;;;;5051754;28;20561;-77
2023/01/11 07:38:10;;;;;;;14.48;2.00;;;9.80;99.90;;;;;;5051673;28;20045;-76
2023/01/11 07:40:36;;;;;;;15.02;2.20;;;9.90;99.90;;;;;;5052480;28;20029;-76
2023/01/11 07:43:13;;;;;;;11.50;1.83;;;9.80;99.90;;;;;;5049335;28;20127;-77
2023/01/11 07:45:41;;;;;;;17.60;3.28;;;9.90;99.90;;;;;;5033843;28;20064;-77
2023/01/11 07:48:09;;;;;;;12.30;2.17;;;10.10;99.90;;;;;;5052161;28;20087;-78
2023/01/11 07:50:39;;;;;;;13.05;2.50;;;10.00;99.90;;;;;;5044317;28;20049;-74
2023/01/11 07:53:05;;;;;;;15.70;2.60;;;10.00;99.90;;;;;;5052977;28;20219;-77
2023/01/11 07:55:30;;;;;;;14.65;2.50;;;9.80;99.90;;;;;;5052999;28;20436;-77
2023/01/11 07:57:56;;;;;;;13.75;2.45;;;9.90;99.90;;;;;;5051832;28;20094;-77
2023/01/11 08:00:23;;;;;;;17.27;2.70;;;9.80;99.90;;;;;;5052920;28;20136;-77
2023/01/11 08:02:51;;;;;;;18.05;3.35;;;9.90;99.90;;;;;;5051606;28;20064;-78
2023/01/11 08:05:20;;;;;;;17.30;3.13;;;9.90;99.90;;;;;;5051826;28;20450;-78
2023/01/11 08:07:46;;;;;;;12.10;2.03;;;9.90;99.90;;;;;;5035019;28;20489;-77
2023/01/11 08:10:11;;;;;;;15.65;2.70;;;9.90;99.90;;;;;;5052850;28;20031;-77
2023/01/11 08:15:36;;;;;;;11.18;2.20;;;9.90;99.90;;;;;;5050695;28;20049;-77
2023/01/11 08:18:04;;;;;;;12.63;2.40;;;9.90;99.90;;;;;;5052873;28;20563;-78
2023/01/11 08:20:30;;;;;;;11.85;2.05;;;9.90;99.90;;;;;;5051599;28;20045;-78
2023/01/11 08:22:55;;;;;;;12.70;2.25;;;9.90;99.90;;;;;;5052237;28;20524;-77
2023/01/11 08:25:21;;;;;;;12.15;3.08;;;10.00;99.90;;;;;;5051245;28;20504;-77
2023/01/11 08:27:47;;;;;;;12.85;2.20;;;9.90;99.90;;;;;;5052653;28;20374;-78
2023/01/11 08:30:13;;;;;;;16.65;2.72;;;9.80;99.90;;;;;;5068133;28;20044;-78
2023/01/11 08:32:39;;;;;;;11.68;2.10;;;9.80;99.90;;;;;;5051443;28;20045;-78
2023/01/11 08:35:05;;;;;;;14.85;2.47;;;9.80;99.90;;;;;;5051318;28;20517;-78
2023/01/11 08:37:30;;;;;;;10.18;1.92;;;9.70;99.90;;;;;;5052564;28;20037;-78
2023/01/11 08:39:57;;;;;;;12.00;1.95;;;9.70;99.90;;;;;;5052559;28;20090;-77
2023/01/11 08:42:22;;;;;;;12.07;1.80;;;9.70;99.90;;;;;;5051234;28;20120;-77
2023/01/11 08:44:48;;;;;;;10.45;1.80;;;9.60;99.90;;;;;;5052687;28;20537;-77
2023/01/11 08:47:13;;;;;;;9.15;1.80;;;9.60;99.90;;;;;;5055941;28;20049;-77
2023/01/11 08:49:41;;;;;;;7.25;1.52;;;9.60;99.90;;;;;;5056159;28;20039;-77
2023/01/11 08:52:12;;;;;;;8.77;1.90;;;9.50;99.90;;;;;;5071447;28;20049;-78
2023/01/11 08:54:38;;;;;;;12.32;2.00;;;9.50;99.90;;;;;;5054119;28;20080;-78
2023/01/11 08:57:04;;;;;;;7.47;1.35;;;9.40;99.90;;;;;;5055967;28;20041;-77
2023/01/11 08:59:29;;;;;;;6.95;1.25;;;9.40;99.90;;;;;;5056173;28;20050;-77
2023/01/11 09:01:55;;;;;;;12.02;1.52;;;9.30;99.90;;;;;;5071230;28;20123;-78
2023/01/11 09:04:21;;;;;;;9.18;1.70;;;9.20;99.90;;;;;;5054860;28;20049;-78
2023/01/11 09:06:46;;;;;;;11.48;2.17;;;9.20;99.90;;;;;;5055581;28;20049;-77
2023/01/11 09:09:12;;;;;;;10.32;1.70;;;9.20;99.90;;;;;;5055670;28;20041;-78
2023/01/11 09:11:56;;;;;;;9.45;1.42;;;9.10;99.90;;;;;;5055910;28;20090;-77
2023/01/11 09:14:23;;;;;;;10.90;2.92;;;9.10;99.90;;;;;;5055913;28;20049;-77
2023/01/11 09:16:50;;;;;;;10.57;1.50;;;9.10;99.90;;;;;;5055523;28;20055;-77
2023/01/11 09:19:16;;;;;;;10.75;1.73;;;9.10;99.90;;;;;;5055978;28;20563;-77
2023/01/11 09:21:43;;;;;;;8.35;1.45;;;9.10;99.90;;;;;;5055650;28;20033;-77
2023/01/11 09:24:08;;;;;;;8.13;1.45;;;9.10;99.90;;;;;;5055501;28;20048;-77
2023/01/11 09:26:34;;;;;;;10.15;1.48;;;9.10;99.90;;;;;;5054146;28;20045;-77
2023/01/11 09:29:00;;;;;;;12.10;2.17;;;9.00;99.90;;;;;;5054203;28;20041;-77
2023/01/11 09:31:25;;;;;;;9.63;1.90;;;9.10;99.90;;;;;;5055358;28;20048;-77
2023/01/11 09:33:51;;;;;;;8.85;1.60;;;9.10;99.90;;;;;;5055414;28;20029;-77
2023/01/11 09:36:20;;;;;;;11.93;2.88;;;9.10;99.90;;;;;;5055395;28;20503;-77
2023/01/11 09:38:51;;;;;;;9.30;1.75;;;9.10;99.90;;;;;;5055442;28;20048;-77
2023/01/11 09:41:39;;;;;;;9.50;1.65;;;9.10;99.90;;;;;;5054080;28;20048;-77
2023/01/11 09:44:15;;;;;;;11.20;1.65;;;9.10;99.90;;;;;;5070938;28;20089;-77
2023/01/11 09:46:45;;;;;;;11.25;2.63;;;9.20;99.90;;;;;;5055242;28;20086;-77
2023/01/11 09:49:17;;;;;;;8.55;2.38;;;9.30;99.90;;;;;;5055313;28;20036;-78
2023/01/11 09:51:45;;;;;;;11.80;1.75;;;9.30;99.90;;;;;;5055258;28;20374;-77
2023/01/11 09:54:17;;;;;;;10.57;2.05;;;9.30;99.90;;;;;;5053934;28;20444;-77
2023/01/11 09:56:56;;;;;;;13.55;2.13;;;9.30;99.90;;;;;;5053193;28;20404;-78
2023/01/11 09:59:41;;;;;;;10.43;1.65;;;9.50;99.90;;;;;;5055062;28;20041;-77
2023/01/11 10:02:35;;;;;;;7.93;1.95;;;9.60;99.90;;;;;;5054805;28;20393;-77
2023/01/11 10:05:22;;;;;;;10.60;1.40;;;9.70;99.90;;;;;;5039493;28;20118;-78
2023/01/11 10:07:56;;;;;;;12.98;1.55;;;9.80;99.90;;;;;;5053735;28;20465;-78
2023/01/11 10:10:47;;;;;;;8.80;1.60;;;9.80;99.90;;;;;;5054837;28;20060;-78
2023/01/11 10:13:25;;;;;;;11.27;1.83;;;9.80;99.90;;;;;;5054715;28;20041;-78
2023/01/11 10:16:23;;;;;;;11.57;1.88;;;9.80;99.90;;;;;;5053686;28;20048;-78
2023/01/11 10:19:05;;;;;;;9.40;1.42;;;9.90;99.90;;;;;;5042811;28;20116;-78
2023/01/11 10:22:03;;;;;;;8.07;1.42;;;9.90;99.90;;;;;;5054454;28;20033;-78
2023/01/11 10:25:09;;;;;;;11.70;1.77;;;9.90;99.90;;;;;;5054571;28;20037;-78
2023/01/11 10:27:39;;;;;;;13.68;2.22;;;9.90;99.90;;;;;;5036310;28;20132;-78
2023/01/11 10:30:36;;;;;;;12.55;1.83;;;10.00;99.90;;;;;;5054189;28;20037;-78
2023/01/11 10:39:54;;;;;;;10.88;2.00;;;10.10;99.90;;;;;;5020178;28;20052;-78
2023/01/11 10:42:28;;;;;;;11.70;1.80;;;10.20;99.90;;;;;;5052874;28;20048;-78
2023/01/11 10:45:02;;;;;;;10.13;1.45;;;10.20;99.90;;;;;;5053102;28;20383;-78
2023/01/11 10:47:43;;;;;;;12.05;2.20;;;10.10;99.90;;;;;;5052893;28;20045;-78
2023/01/11 10:50:26;;;;;;;11.13;1.80;;;10.20;99.90;;;;;;5053865;28;20037;-78
2023/01/11 10:53:06;;;;;;;9.73;1.80;;;10.20;99.90;;;;;;5069325;28;20045;-78
2023/01/11 10:55:45;;;;;;;10.32;2.00;;;10.30;99.90;;;;;;5053962;28;20106;-78
2023/01/11 10:58:37;;;;;;;14.18;2.47;;;10.20;99.90;;;;;;5053802;28;20413;-78
2023/01/11 11:01:31;;;;;;;13.95;2.10;;;10.20;99.90;;;;;;5053902;28;20041;-78
2023/01/11 11:04:25;;;;;;;10.70;1.60;;;10.20;99.90;;;;;;5053511;28;20052;-78
2023/01/11 11:07:08;;;;;;;16.35;2.90;;;10.20;99.90;;;;;;5053612;28;20533;-78
2023/01/11 11:10:15;;;;;;;10.88;2.45;;;10.40;99.90;;;;;;5053385;28;20428;-78
2023/01/11 11:12:55;;;;;;;14.20;3.40;;;10.40;99.90;;;;;;5053774;28;20049;-78
2023/01/11 11:15:29;;;;;;;11.55;2.20;;;10.40;99.90;;;;;;5053468;28;20037;-78
2023/01/11 11:17:55;;;;;;;12.25;2.03;;;10.40;99.90;;;;;;5045253;28;20087;-74
2023/01/11 11:20:28;;;;;;;12.27;3.28;;;10.50;99.90;;;;;;5047511;28;20060;-78
2023/01/11 11:22:56;;;;;;;12.32;2.17;;;10.40;99.90;;;;;;5047232;28;20235;-78
2023/01/11 11:25:34;;;;;;;7.45;1.73;;;10.40;99.90;;;;;;5040238;28;20123;-78
2023/01/11 11:28:23;;;;;;;14.07;2.55;;;10.60;99.90;;;;;;5050465;28;20047;-78
2023/01/11 11:30:53;;;;;;;20.38;3.28;;;10.40;99.90;;;;;;5043091;28;20350;-78
2023/01/11 11:33:21;;;;;;;11.55;3.10;;;10.30;99.90;;;;;;5043042;28;20055;-78
2023/01/11 11:36:03;;;;;;;12.02;2.30;;;10.20;99.90;;;;;;5051427;28;20120;-78
2023/01/11 11:38:32;;;;;;;7.85;1.85;;;10.30;99.90;;;;;;5050868;28;20041;-78
2023/01/11 11:41:05;;;;;;;12.20;2.95;;;10.30;99.90;;;;;;5048520;28;20562;-78
2023/01/11 11:43:33;;;;;;;11.55;2.60;;;10.30;99.90;;;;;;5051530;28;20037;-78
2023/01/11 11:46:01;;;;;;;10.48;2.67;;;10.20;99.90;;;;;;5046098;28;20038;-78
2023/01/11 11:48:30;;;;;;;10.40;1.92;;;10.20;99.90;;;;;;5046241;28;20087;-78
2023/01/11 11:50:59;;;;;;;14.73;2.58;;;10.20;99.90;;;;;;5052593;28;20484;-78
2023/01/11 11:53:36;;;;;;;14.55;2.30;;;10.20;99.90;;;;;;5049506;28;20068;-78
2023/01/11 11:56:23;;;;;;;13.20;2.72;;;10.20;99.90;;;;;;5051885;28;20043;-78
2023/01/11 11:58:49;;;;;;;14.98;2.35;;;10.10;99.90;;;;;;5047646;28;20041;-78
2023/01/11 12:01:38;;;;;;;10.70;1.90;;;10.30;99.90;;;;;;5051310;28;20041;-78
2023/01/11 12:04:16;;;;;;;11.35;2.10;;;10.30;99.90;;;;;;5038218;28;20093;-78
2023/01/11 12:06:43;;;;;;;13.93;2.38;;;10.20;99.90;;;;;;5049119;28;20044;-78
2023/01/11 12:09:27;;;;;;;16.40;2.38;;;10.20;99.90;;;;;;5052739;28;20090;-78
2023/01/11 12:11:53;;;;;;;14.98;2.78;;;10.20;99.90;;;;;;5051403;28;20056;-78
2023/01/11 12:14:28;;;;;;;16.75;2.75;;;10.20;99.90;;;;;;5052248;28;20033;-78
2023/01/11 12:16:56;;;;;;;7.15;1.25;;;10.10;99.90;;;;;;5052343;28;20132;-78
2023/01/11 12:19:44;;;;;;;11.65;1.98;;;10.20;99.90;;;;;;5053515;28;20127;-78
2023/01/11 12:22:21;;;;;;;17.38;2.63;;;10.20;99.90;;;;;;5036252;28;20045;-78
2023/01/11 12:25:06;;;;;;;10.60;2.10;;;10.10;99.90;;;;;;5052251;28;20078;-78
2023/01/11 12:27:42;;;;;;;8.85;1.80;;;10.20;99.90;;;;;;5047798;28;20453;-78
2023/01/11 12:30:23;;;;;;;9.85;2.05;;;10.30;99.90;;;;;;5037186;28;20117;-79
2023/01/11 12:33:26;;;;;;;19.45;2.80;;;10.30;99.90;;;;;;5051620;28;20409;-78
2023/01/11 12:36:03;;;;;;;13.88;2.28;;;10.20;99.90;;;;;;5038698;28;20124;-78
2023/01/11 12:38:48;;;;;;;7.47;1.65;;;10.20;99.90;;;;;;5050497;28;20090;-78
2023/01/11 12:41:56;;;;;;;14.65;2.45;;;10.20;99.90;;;;;;5054860;28;20124;-78
2023/01/11 12:44:22;;;;;;;18.00;2.47;;;10.10;99.90;;;;;;5051416;28;20044;-78
2023/01/11 12:47:25;;;;;;;13.65;2.50;;;10.10;99.90;;;;;;5051747;28;20041;-78
2023/01/11 12:50:02;;;;;;;13.90;2.70;;;10.20;99.90;;;;;;5053890;28;20112;-78
2023/01/11 12:52:47;;;;;;;16.52;2.60;;;10.20;99.90;;;;;;5042841;28;20056;-78
2023/01/11 12:55:37;;;;;;;11.70;2.35;;;10.00;99.90;;;;;;5057002;28;20123;-78
2023/01/11 12:58:13;;;;;;;12.93;2.20;;;10.10;99.90;;;;;;5035509;28;20045;-78
2023/01/11 13:01:05;;;;;;;15.43;2.63;;;10.10;99.90;;;;;;5039792;28;20045;-77
2023/01/11 13:03:58;;;;;;;12.40;2.20;;;9.90;99.90;;;;;;5044014;28;20061;-77
2023/01/11 13:06:30;;;;;;;13.82;2.38;;;10.00;99.90;;;;;;5051855;28;20037;-77
2023/01/11 13:09:05;;;;;;;13.88;2.13;;;9.90;99.90;;;;;;5055630;28;20116;-77
2023/01/11 13:11:47;;;;;;;16.85;2.80;;;10.00;99.90;;;;;;5034863;28;20045;-78
2023/01/11 13:14:34;;;;;;;15.63;2.55;;;10.00;99.90;;;;;;5050439;28;20037;-78
2023/01/11 13:17:21;;;;;;;17.23;3.72;;;10.00;99.90;;;;;;5053625;28;20049;-77
2023/01/11 13:20:15;;;;;;;12.40;2.08;;;10.00;99.90;;;;;;5042738;28;20386;-77
2023/01/11 13:22:48;;;;;;;9.80;1.80;;;10.20;99.90;;;;;;5044421;28;20128;-77
2023/01/11 13:25:24;;;;;;;12.45;2.35;;;10.10;99.90;;;;;;5047360;28;20116;-77
2023/01/11 13:27:52;;;;;;;17.40;2.60;;;10.10;99.90;;;;;;5049995;28;20048;-76
2023/01/11 13:30:22;;;;;;;15.68;2.45;;;10.10;99.90;;;;;;5034058;28;20116;-77
2023/01/11 13:32:56;;;;;;;17.27;3.45;;;10.00;99.90;;;;;;5033581;28;20042;-77
2023/01/11 13:35:40;;;;;;;14.82;2.50;;;9.90;99.90;;;;;;5034788;28;20124;-77
2023/01/11 13:38:35;;;;;;;14.10;3.47;;;9.90;99.90;;;;;;5035103;28;20037;-76
2023/01/11 13:41:16;;;;;;;17.92;2.95;;;9.90;99.90;;;;;;5034596;28;20061;-77